sensor_id;sensor_type;location;lat;lon;timestamp;temperature;humidity
5556;DHT22;2801;50.972;7.856;2023-07-13T00:02:00;16.20;93.30
5556;DHT22;2801;50.972;7.856;2023-07-13T00:04:28;16.00;93.30
5556;DHT22;2801;50.972;7.856;2023-07-13T00:06:57;15.70;93.40
5556;DHT22;2801;50.972;7.856;2023-07-13T00:09:24;15.50;93.60
5556;DHT22;2801;50.972;7.856;2023-07-13T00:11:54;15.20;93.80
5556;DHT22;2801;50.972;7.856;2023-07-13T00:14:23;15.10;94.10
5556;DHT22;2801;50.972;7.856;2023-07-13T00:16:51;14.90;94.20
5556;DHT22;2801;50.972;7.856;2023-07-13T00:19:18;14.80;94.70
5556;DHT22;2801;50.972;7.856;2023-07-13T00:21:46;14.70;94.50
5556;DHT22;2801;50.972;7.856;2023-07-13T00:24:16;14.40;94.60
5556;DHT22;2801;50.972;7.856;2023-07-13T00:26:50;14.30;94.80
5556;DHT22;2801;50.972;7.856;2023-07-13T00:29:18;14.10;94.90
5556;DHT22;2801;50.972;7.856;2023-07-13T00:31:45;14.00;95.10
5556;DHT22;2801;50.972;7.856;2023-07-13T00:34:12;13.90;95.20
5556;DHT22;2801;50.972;7.856;2023-07-13T00:36:40;13.80;95.30
5556;DHT22;2801;50.972;7.856;2023-07-13T00:39:07;13.80;95.50
5556;DHT22;2801;50.972;7.856;2023-07-13T00:41:34;13.70;95.60
5556;DHT22;2801;50.972;7.856;2023-07-13T00:44:01;13.70;95.70
5556;DHT22;2801;50.972;7.856;2023-07-13T00:46:32;13.50;95.70
5556;DHT22;2801;50.972;7.856;2023-07-13T00:49:09;13.50;95.80
5556;DHT22;2801;50.972;7.856;2023-07-13T00:51:54;13.50;96.00
5556;DHT22;2801;50.972;7.856;2023-07-13T00:54:32;13.20;96.00
5556;DHT22;2801;50.972;7.856;2023-07-13T00:57:06;13.10;96.10
5556;DHT22;2801;50.972;7.856;2023-07-13T00:59:36;13.00;96.20
5556;DHT22;2801;50.972;7.856;2023-07-13T01:02:07;12.90;96.40
5556;DHT22;2801;50.972;7.856;2023-07-13T01:04:34;12.80;96.40
5556;DHT22;2801;50.972;7.856;2023-07-13T01:07:01;12.70;96.50
5556;DHT22;2801;50.972;7.856;2023-07-13T01:09:28;12.60;96.70
5556;DHT22;2801;50.972;7.856;2023-07-13T01:11:54;12.50;96.80
5556;DHT22;2801;50.972;7.856;2023-07-13T01:14:21;12.40;96.90
5556;DHT22;2801;50.972;7.856;2023-07-13T01:16:49;12.30;97.00
5556;DHT22;2801;50.972;7.856;2023-07-13T01:22:10;12.20;97.40
5556;DHT22;2801;50.972;7.856;2023-07-13T01:24:43;12.10;97.40
5556;DHT22;2801;50.972;7.856;2023-07-13T01:27:23;12.10;97.60
5556;DHT22;2801;50.972;7.856;2023-07-13T01:29:52;12.00;97.80
5556;DHT22;2801;50.972;7.856;2023-07-13T01:32:23;12.00;97.80
5556;DHT22;2801;50.972;7.856;2023-07-13T01:34:53;11.90;97.90
5556;DHT22;2801;50.972;7.856;2023-07-13T01:37:25;11.90;98.00
5556;DHT22;2801;50.972;7.856;2023-07-13T01:39:53;11.90;98.10
5556;DHT22;2801;50.972;7.856;2023-07-13T01:42:20;11.80;98.20
5556;DHT22;2801;50.972;7.856;2023-07-13T01:44:47;11.80;98.40
5556;DHT22;2801;50.972;7.856;2023-07-13T01:47:14;11.70;98.50
5556;DHT22;2801;50.972;7.856;2023-07-13T01:49:41;11.80;98.60
5556;DHT22;2801;50.972;7.856;2023-07-13T01:52:08;11.70;98.60
5556;DHT22;2801;50.972;7.856;2023-07-13T01:54:35;11.70;98.70
5556;DHT22;2801;50.972;7.856;2023-07-13T01:57:02;11.60;98.80
5556;DHT22;2801;50.972;7.856;2023-07-13T01:59:30;11.60;98.90
5556;DHT22;2801;50.972;7.856;2023-07-13T02:01:57;11.60;99.10
5556;DHT22;2801;50.972;7.856;2023-07-13T02:04:24;11.60;99.20
5556;DHT22;2801;50.972;7.856;2023-07-13T02:06:51;11.60;99.20
5556;DHT22;2801;50.972;7.856;2023-07-13T02:09:18;11.60;99.30
5556;DHT22;2801;50.972;7.856;2023-07-13T02:11:45;11.60;99.40
5556;DHT22;2801;50.972;7.856;2023-07-13T02:14:12;11.60;99.50
5556;DHT22;2801;50.972;7.856;2023-07-13T02:16:39;11.60;99.60
5556;DHT22;2801;50.972;7.856;2023-07-13T02:19:06;11.50;99.60
5556;DHT22;2801;50.972;7.856;2023-07-13T02:21:33;11.50;99.60
5556;DHT22;2801;50.972;7.856;2023-07-13T02:24:00;11.40;99.70
5556;DHT22;2801;50.972;7.856;2023-07-13T02:26:28;11.40;99.70
5556;DHT22;2801;50.972;7.856;2023-07-13T02:28:54;11.50;99.80
5556;DHT22;2801;50.972;7.856;2023-07-13T02:31:21;11.30;99.80
5556;DHT22;2801;50.972;7.856;2023-07-13T02:33:48;11.20;99.90
5556;DHT22;2801;50.972;7.856;2023-07-13T02:36:15;11.10;99.90
5556;DHT22;2801;50.972;7.856;2023-07-13T02:38:43;11.10;99.90
5556;DHT22;2801;50.972;7.856;2023-07-13T02:41:09;11.00;99.90
5556;DHT22;2801;50.972;7.856;2023-07-13T02:43:37;11.00;99.90
5556;DHT22;2801;50.972;7.856;2023-07-13T02:46:05;11.00;99.90
5556;DHT22;2801;50.972;7.856;2023-07-13T02:48:36;11.00;99.90
5556;DHT22;2801;50.972;7.856;2023-07-13T02:51:04;11.00;99.90
5556;DHT22;2801;50.972;7.856;2023-07-13T02:53:32;10.90;99.90
5556;DHT22;2801;50.972;7.856;2023-07-13T02:55:59;10.90;99.90
5556;DHT22;2801;50.972;7.856;2023-07-13T02:58:26;10.90;99.90
5556;DHT22;2801;50.972;7.856;2023-07-13T03:00:53;10.90;99.90
5556;DHT22;2801;50.972;7.856;2023-07-13T03:03:22;10.90;99.90
5556;DHT22;2801;50.972;7.856;2023-07-13T03:05:58;10.90;99.90
5556;DHT22;2801;50.972;7.856;2023-07-13T03:08:26;10.90;99.90
5556;DHT22;2801;50.972;7.856;2023-07-13T03:11:07;10.80;99.90
5556;DHT22;2801;50.972;7.856;2023-07-13T03:13:38;10.80;99.90
5556;DHT22;2801;50.972;7.856;2023-07-13T03:16:06;10.80;99.90
5556;DHT22;2801;50.972;7.856;2023-07-13T03:18:35;10.80;99.90
5556;DHT22;2801;50.972;7.856;2023-07-13T03:21:03;10.70;99.90
5556;DHT22;2801;50.972;7.856;2023-07-13T03:23:31;10.70;99.90
5556;DHT22;2801;50.972;7.856;2023-07-13T03:26:11;10.70;99.90
5556;DHT22;2801;50.972;7.856;2023-07-13T03:28:41;10.70;99.90
5556;DHT22;2801;50.972;7.856;2023-07-13T03:31:12;10.70;99.90
5556;DHT22;2801;50.972;7.856;2023-07-13T03:33:40;10.70;99.90
5556;DHT22;2801;50.972;7.856;2023-07-13T03:36:11;10.60;99.90
5556;DHT22;2801;50.972;7.856;2023-07-13T03:38:41;10.60;99.90
5556;DHT22;2801;50.972;7.856;2023-07-13T03:41:08;10.60;99.90
5556;DHT22;2801;50.972;7.856;2023-07-13T03:43:35;10.60;99.90
5556;DHT22;2801;50.972;7.856;2023-07-13T03:46:02;10.60;99.90
5556;DHT22;2801;50.972;7.856;2023-07-13T03:48:28;10.60;99.90
5556;DHT22;2801;50.972;7.856;2023-07-13T03:50:55;10.70;99.90
5556;DHT22;2801;50.972;7.856;2023-07-13T03:53:22;10.70;99.90
5556;DHT22;2801;50.972;7.856;2023-07-13T03:55:49;10.80;99.90
5556;DHT22;2801;50.972;7.856;2023-07-13T04:00:56;10.80;99.90
5556;DHT22;2801;50.972;7.856;2023-07-13T04:03:25;10.80;99.90
5556;DHT22;2801;50.972;7.856;2023-07-13T04:06:01;10.90;99.90
5556;DHT22;2801;50.972;7.856;2023-07-13T04:08:33;11.00;99.90
5556;DHT22;2801;50.972;7.856;2023-07-13T04:11:03;11.10;99.90
5556;DHT22;2801;50.972;7.856;2023-07-13T04:13:31;11.20;99.90
5556;DHT22;2801;50.972;7.856;2023-07-13T04:15:58;11.30;99.90
5556;DHT22;2801;50.972;7.856;2023-07-13T04:18:25;11.50;99.90
5556;DHT22;2801;50.972;7.856;2023-07-13T04:20:52;11.60;99.90
5556;DHT22;2801;50.972;7.856;2023-07-13T04:23:19;11.60;99.90
5556;DHT22;2801;50.972;7.856;2023-07-13T04:25:47;11.70;99.90
5556;DHT22;2801;50.972;7.856;2023-07-13T04:28:16;11.80;99.90
5556;DHT22;2801;50.972;7.856;2023-07-13T04:30:44;11.80;99.90
5556;DHT22;2801;50.972;7.856;2023-07-13T04:33:11;11.80;99.90
5556;DHT22;2801;50.972;7.856;2023-07-13T04:35:38;12.00;99.90
5556;DHT22;2801;50.972;7.856;2023-07-13T04:38:05;11.90;99.90
5556;DHT22;2801;50.972;7.856;2023-07-13T04:40:33;12.00;99.90
5556;DHT22;2801;50.972;7.856;2023-07-13T04:43:00;12.10;99.90
5556;DHT22;2801;50.972;7.856;2023-07-13T04:45:27;12.20;99.90
5556;DHT22;2801;50.972;7.856;2023-07-13T04:47:54;12.30;99.90
5556;DHT22;2801;50.972;7.856;2023-07-13T04:50:21;12.40;99.90
5556;DHT22;2801;50.972;7.856;2023-07-13T04:52:53;12.50;99.90
5556;DHT22;2801;50.972;7.856;2023-07-13T04:55:20;12.60;99.90
5556;DHT22;2801;50.972;7.856;2023-07-13T04:57:47;12.70;99.90
5556;DHT22;2801;50.972;7.856;2023-07-13T05:00:14;12.80;99.90
5556;DHT22;2801;50.972;7.856;2023-07-13T05:02:44;12.90;99.90
5556;DHT22;2801;50.972;7.856;2023-07-13T05:05:14;13.10;99.90
5556;DHT22;2801;50.972;7.856;2023-07-13T05:07:41;13.30;99.90
5556;DHT22;2801;50.972;7.856;2023-07-13T05:10:08;13.50;99.90
5556;DHT22;2801;50.972;7.856;2023-07-13T05:12:36;14.00;99.90
5556;DHT22;2801;50.972;7.856;2023-07-13T05:15:03;14.80;99.90
5556;DHT22;2801;50.972;7.856;2023-07-13T05:17:31;15.50;99.90
5556;DHT22;2801;50.972;7.856;2023-07-13T05:19:58;16.00;99.90
5556;DHT22;2801;50.972;7.856;2023-07-13T05:22:25;16.40;99.90
5556;DHT22;2801;50.972;7.856;2023-07-13T05:24:52;16.60;99.90
5556;DHT22;2801;50.972;7.856;2023-07-13T05:27:19;16.80;99.90
5556;DHT22;2801;50.972;7.856;2023-07-13T05:29:46;16.90;99.90
5556;DHT22;2801;50.972;7.856;2023-07-13T05:32:13;17.00;99.90
5556;DHT22;2801;50.972;7.856;2023-07-13T05:34:40;17.10;99.90
5556;DHT22;2801;50.972;7.856;2023-07-13T05:37:07;17.20;99.90
5556;DHT22;2801;50.972;7.856;2023-07-13T05:39:34;17.40;99.90
5556;DHT22;2801;50.972;7.856;2023-07-13T05:42:02;17.60;99.90
5556;DHT22;2801;50.972;7.856;2023-07-13T05:44:30;17.80;99.90
5556;DHT22;2801;50.972;7.856;2023-07-13T05:46:57;18.00;99.90
5556;DHT22;2801;50.972;7.856;2023-07-13T05:49:24;18.10;99.90
5556;DHT22;2801;50.972;7.856;2023-07-13T05:51:51;18.20;99.60
5556;DHT22;2801;50.972;7.856;2023-07-13T05:54:18;18.30;99.40
5556;DHT22;2801;50.972;7.856;2023-07-13T05:56:45;18.40;98.90
5556;DHT22;2801;50.972;7.856;2023-07-13T05:59:12;18.40;98.50
5556;DHT22;2801;50.972;7.856;2023-07-13T06:01:39;18.40;97.70
5556;DHT22;2801;50.972;7.856;2023-07-13T06:04:06;18.50;97.40
5556;DHT22;2801;50.972;7.856;2023-07-13T06:06:33;18.80;96.90
5556;DHT22;2801;50.972;7.856;2023-07-13T06:09:00;18.90;96.20
5556;DHT22;2801;50.972;7.856;2023-07-13T06:11:27;19.00;96.20
5556;DHT22;2801;50.972;7.856;2023-07-13T06:13:56;19.30;95.90
5556;DHT22;2801;50.972;7.856;2023-07-13T06:16:23;19.40;95.10
5556;DHT22;2801;50.972;7.856;2023-07-13T06:18:50;19.40;95.00
5556;DHT22;2801;50.972;7.856;2023-07-13T06:21:21;19.20;94.80
5556;DHT22;2801;50.972;7.856;2023-07-13T06:23:50;19.20;95.20
5556;DHT22;2801;50.972;7.856;2023-07-13T06:26:20;19.20;95.60
5556;DHT22;2801;50.972;7.856;2023-07-13T06:28:47;19.20;95.50
5556;DHT22;2801;50.972;7.856;2023-07-13T06:31:15;19.20;95.20
5556;DHT22;2801;50.972;7.856;2023-07-13T06:33:43;19.10;95.50
5556;DHT22;2801;50.972;7.856;2023-07-13T06:36:11;19.00;95.40
5556;DHT22;2801;50.972;7.856;2023-07-13T06:38:38;19.00;95.10
5556;DHT22;2801;50.972;7.856;2023-07-13T06:41:07;18.80;95.10
5556;DHT22;2801;50.972;7.856;2023-07-13T06:43:35;18.80;95.20
5556;DHT22;2801;50.972;7.856;2023-07-13T06:46:02;18.80;95.50
5556;DHT22;2801;50.972;7.856;2023-07-13T06:48:29;18.80;95.70
5556;DHT22;2801;50.972;7.856;2023-07-13T06:50:57;18.80;95.50
5556;DHT22;2801;50.972;7.856;2023-07-13T06:53:24;18.70;95.30
5556;DHT22;2801;50.972;7.856;2023-07-13T06:55:51;18.80;95.50
5556;DHT22;2801;50.972;7.856;2023-07-13T06:58:19;18.60;95.20
5556;DHT22;2801;50.972;7.856;2023-07-13T07:00:49;18.60;95.50
5556;DHT22;2801;50.972;7.856;2023-07-13T07:03:17;18.60;95.50
5556;DHT22;2801;50.972;7.856;2023-07-13T07:05:44;18.60;95.50
5556;DHT22;2801;50.972;7.856;2023-07-13T07:08:12;18.60;95.40
5556;DHT22;2801;50.972;7.856;2023-07-13T07:10:40;18.60;95.50
5556;DHT22;2801;50.972;7.856;2023-07-13T07:13:07;18.80;95.60
5556;DHT22;2801;50.972;7.856;2023-07-13T07:15:35;18.90;95.50
5556;DHT22;2801;50.972;7.856;2023-07-13T07:18:02;19.10;95.30
5556;DHT22;2801;50.972;7.856;2023-07-13T07:20:30;19.20;95.20
5556;DHT22;2801;50.972;7.856;2023-07-13T07:22:57;19.30;95.20
5556;DHT22;2801;50.972;7.856;2023-07-13T07:25:24;19.50;95.00
5556;DHT22;2801;50.972;7.856;2023-07-13T07:27:51;19.60;94.40
5556;DHT22;2801;50.972;7.856;2023-07-13T07:30:21;19.80;94.30
5556;DHT22;2801;50.972;7.856;2023-07-13T07:32:51;20.30;93.80
5556;DHT22;2801;50.972;7.856;2023-07-13T07:35:23;20.80;92.80
5556;DHT22;2801;50.972;7.856;2023-07-13T07:37:50;21.00;92.20
5556;DHT22;2801;50.972;7.856;2023-07-13T07:40:18;21.00;91.80
5556;DHT22;2801;50.972;7.856;2023-07-13T07:42:48;21.30;91.30
5556;DHT22;2801;50.972;7.856;2023-07-13T07:45:15;21.50;91.40
5556;DHT22;2801;50.972;7.856;2023-07-13T07:47:42;21.40;91.50
5556;DHT22;2801;50.972;7.856;2023-07-13T07:50:09;21.20;91.50
5556;DHT22;2801;50.972;7.856;2023-07-13T07:52:37;20.90;92.10
5556;DHT22;2801;50.972;7.856;2023-07-13T07:55:05;20.80;92.30
5556;DHT22;2801;50.972;7.856;2023-07-13T07:57:36;20.70;92.80
5556;DHT22;2801;50.972;7.856;2023-07-13T08:00:06;20.70;93.40
5556;DHT22;2801;50.972;7.856;2023-07-13T08:02:37;20.80;93.00
5556;DHT22;2801;50.972;7.856;2023-07-13T08:05:07;20.80;93.00
5556;DHT22;2801;50.972;7.856;2023-07-13T08:07:39;20.80;92.90
5556;DHT22;2801;50.972;7.856;2023-07-13T08:10:07;20.90;92.80
5556;DHT22;2801;50.972;7.856;2023-07-13T08:12:38;21.10;92.50
5556;DHT22;2801;50.972;7.856;2023-07-13T08:15:12;21.30;92.00
5556;DHT22;2801;50.972;7.856;2023-07-13T08:17:41;21.50;91.60
5556;DHT22;2801;50.972;7.856;2023-07-13T08:20:09;21.50;91.50
5556;DHT22;2801;50.972;7.856;2023-07-13T08:22:36;21.50;91.30
5556;DHT22;2801;50.972;7.856;2023-07-13T08:25:03;21.30;91.40
5556;DHT22;2801;50.972;7.856;2023-07-13T08:27:30;21.20;91.10
5556;DHT22;2801;50.972;7.856;2023-07-13T08:29:57;21.10;91.40
5556;DHT22;2801;50.972;7.856;2023-07-13T08:32:24;21.20;91.50
5556;DHT22;2801;50.972;7.856;2023-07-13T08:34:52;21.30;90.90
5556;DHT22;2801;50.972;7.856;2023-07-13T08:37:19;21.30;90.80
5556;DHT22;2801;50.972;7.856;2023-07-13T08:39:46;21.20;91.00
5556;DHT22;2801;50.972;7.856;2023-07-13T08:54:28;20.80;91.10
5556;DHT22;2801;50.972;7.856;2023-07-13T08:57:02;20.80;91.00
5556;DHT22;2801;50.972;7.856;2023-07-13T08:59:59;20.70;91.10
5556;DHT22;2801;50.972;7.856;2023-07-13T09:02:34;20.70;90.70
5556;DHT22;2801;50.972;7.856;2023-07-13T09:05:33;20.70;90.70
5556;DHT22;2801;50.972;7.856;2023-07-13T09:11:41;20.90;91.00
5556;DHT22;2801;50.972;7.856;2023-07-13T09:17:46;21.00;90.50
5556;DHT22;2801;50.972;7.856;2023-07-13T09:22:55;20.80;90.70
5556;DHT22;2801;50.972;7.856;2023-07-13T09:25:33;20.90;90.80
5556;DHT22;2801;50.972;7.856;2023-07-13T09:28:17;21.00;90.80
5556;DHT22;2801;50.972;7.856;2023-07-13T09:31:11;21.00;90.90
5556;DHT22;2801;50.972;7.856;2023-07-13T09:33:42;21.30;91.00
5556;DHT22;2801;50.972;7.856;2023-07-13T09:36:21;21.40;90.80
5556;DHT22;2801;50.972;7.856;2023-07-13T09:42:01;21.50;90.50
5556;DHT22;2801;50.972;7.856;2023-07-13T09:44:37;21.60;90.40
5556;DHT22;2801;50.972;7.856;2023-07-13T09:47:31;21.60;90.30
5556;DHT22;2801;50.972;7.856;2023-07-13T09:50:02;21.80;90.80
5556;DHT22;2801;50.972;7.856;2023-07-13T09:52:48;22.00;90.70
5556;DHT22;2801;50.972;7.856;2023-07-13T09:55:25;22.20;90.30
5556;DHT22;2801;50.972;7.856;2023-07-13T09:58:15;22.20;90.00
5556;DHT22;2801;50.972;7.856;2023-07-13T10:01:00;22.20;89.40
5556;DHT22;2801;50.972;7.856;2023-07-13T10:03:36;22.10;89.50
5556;DHT22;2801;50.972;7.856;2023-07-13T10:06:17;22.20;89.40
5556;DHT22;2801;50.972;7.856;2023-07-13T10:08:46;22.20;89.30
5556;DHT22;2801;50.972;7.856;2023-07-13T10:11:26;22.30;88.40
5556;DHT22;2801;50.972;7.856;2023-07-13T10:14:02;22.40;87.90
5556;DHT22;2801;50.972;7.856;2023-07-13T10:16:39;22.30;87.10
5556;DHT22;2801;50.972;7.856;2023-07-13T10:19:21;22.10;87.10
5556;DHT22;2801;50.972;7.856;2023-07-13T10:21:56;22.30;87.10
5556;DHT22;2801;50.972;7.856;2023-07-13T10:24:31;22.40;86.90
5556;DHT22;2801;50.972;7.856;2023-07-13T10:27:04;22.40;85.90
5556;DHT22;2801;50.972;7.856;2023-07-13T10:29:54;22.60;86.00
5556;DHT22;2801;50.972;7.856;2023-07-13T10:32:24;23.20;84.80
5556;DHT22;2801;50.972;7.856;2023-07-13T10:34:52;23.40;83.60
5556;DHT22;2801;50.972;7.856;2023-07-13T10:37:26;23.50;84.00
5556;DHT22;2801;50.972;7.856;2023-07-13T10:39:57;23.50;84.40
5556;DHT22;2801;50.972;7.856;2023-07-13T10:42:30;23.40;84.60
5556;DHT22;2801;50.972;7.856;2023-07-13T10:45:16;23.30;84.30
5556;DHT22;2801;50.972;7.856;2023-07-13T10:47:46;23.30;84.50
5556;DHT22;2801;50.972;7.856;2023-07-13T10:50:20;23.10;82.30
5556;DHT22;2801;50.972;7.856;2023-07-13T10:52:52;23.10;83.40
5556;DHT22;2801;50.972;7.856;2023-07-13T10:58:35;23.50;81.10
5556;DHT22;2801;50.972;7.856;2023-07-13T11:01:11;23.80;80.70
5556;DHT22;2801;50.972;7.856;2023-07-13T11:16:46;23.80;79.40
5556;DHT22;2801;50.972;7.856;2023-07-13T11:24:58;23.30;79.20
5556;DHT22;2801;50.972;7.856;2023-07-13T11:27:37;23.10;81.70
5556;DHT22;2801;50.972;7.856;2023-07-13T11:30:21;22.90;81.00
5556;DHT22;2801;50.972;7.856;2023-07-13T11:39:02;22.80;81.30
5556;DHT22;2801;50.972;7.856;2023-07-13T11:41:44;22.70;81.00
5556;DHT22;2801;50.972;7.856;2023-07-13T11:44:19;22.70;80.20
5556;DHT22;2801;50.972;7.856;2023-07-13T11:46:52;22.60;80.70
5556;DHT22;2801;50.972;7.856;2023-07-13T11:49:23;22.40;80.20
5556;DHT22;2801;50.972;7.856;2023-07-13T11:51:54;22.30;80.40
5556;DHT22;2801;50.972;7.856;2023-07-13T11:56:54;22.00;81.20
5556;DHT22;2801;50.972;7.856;2023-07-13T11:59:24;22.00;81.80
5556;DHT22;2801;50.972;7.856;2023-07-13T12:01:53;22.00;82.10
5556;DHT22;2801;50.972;7.856;2023-07-13T12:04:32;22.10;81.30
5556;DHT22;2801;50.972;7.856;2023-07-13T12:07:06;22.20;81.60
5556;DHT22;2801;50.972;7.856;2023-07-13T12:09:41;22.20;81.60
5556;DHT22;2801;50.972;7.856;2023-07-13T12:12:34;22.20;81.50
5556;DHT22;2801;50.972;7.856;2023-07-13T12:15:07;22.20;81.10
5556;DHT22;2801;50.972;7.856;2023-07-13T12:17:35;22.20;81.70
5556;DHT22;2801;50.972;7.856;2023-07-13T12:20:19;22.30;82.60
5556;DHT22;2801;50.972;7.856;2023-07-13T12:22:51;22.50;82.10
5556;DHT22;2801;50.972;7.856;2023-07-13T12:25:19;22.90;81.20
5556;DHT22;2801;50.972;7.856;2023-07-13T12:27:51;22.90;81.30
5556;DHT22;2801;50.972;7.856;2023-07-13T12:30:30;23.00;81.60
5556;DHT22;2801;50.972;7.856;2023-07-13T12:33:07;23.00;80.30
5556;DHT22;2801;50.972;7.856;2023-07-13T12:35:55;23.10;80.90
5556;DHT22;2801;50.972;7.856;2023-07-13T12:38:26;23.10;80.70
5556;DHT22;2801;50.972;7.856;2023-07-13T12:40:54;23.10;79.50
5556;DHT22;2801;50.972;7.856;2023-07-13T12:43:22;23.00;78.90
5556;DHT22;2801;50.972;7.856;2023-07-13T12:46:01;22.90;78.60
5556;DHT22;2801;50.972;7.856;2023-07-13T12:48:30;22.90;79.00
5556;DHT22;2801;50.972;7.856;2023-07-13T12:51:16;22.90;79.10
5556;DHT22;2801;50.972;7.856;2023-07-13T12:53:56;22.70;78.50
5556;DHT22;2801;50.972;7.856;2023-07-13T12:56:27;22.60;78.30
5556;DHT22;2801;50.972;7.856;2023-07-13T12:59:03;22.50;78.90
5556;DHT22;2801;50.972;7.856;2023-07-13T13:01:34;22.50;79.20
5556;DHT22;2801;50.972;7.856;2023-07-13T13:04:04;22.60;80.20
5556;DHT22;2801;50.972;7.856;2023-07-13T13:06:35;22.80;80.60
5556;DHT22;2801;50.972;7.856;2023-07-13T13:09:05;22.80;80.30
5556;DHT22;2801;50.972;7.856;2023-07-13T13:11:38;22.80;80.40
5556;DHT22;2801;50.972;7.856;2023-07-13T13:14:07;22.80;81.40
5556;DHT22;2801;50.972;7.856;2023-07-13T13:16:47;22.90;81.00
5556;DHT22;2801;50.972;7.856;2023-07-13T13:19:19;22.90;80.40
5556;DHT22;2801;50.972;7.856;2023-07-13T13:21:54;22.90;80.20
5556;DHT22;2801;50.972;7.856;2023-07-13T13:24:25;22.90;80.20
5556;DHT22;2801;50.972;7.856;2023-07-13T13:26:55;22.90;80.40
5556;DHT22;2801;50.972;7.856;2023-07-13T13:29:24;22.90;80.40
5556;DHT22;2801;50.972;7.856;2023-07-13T13:31:53;23.10;80.60
5556;DHT22;2801;50.972;7.856;2023-07-13T13:34:22;23.40;80.00
5556;DHT22;2801;50.972;7.856;2023-07-13T13:36:51;23.50;78.60
5556;DHT22;2801;50.972;7.856;2023-07-13T13:39:28;23.50;77.90
5556;DHT22;2801;50.972;7.856;2023-07-13T13:41:58;23.50;78.80
5556;DHT22;2801;50.972;7.856;2023-07-13T13:44:24;23.60;79.00
5556;DHT22;2801;50.972;7.856;2023-07-13T13:46:53;23.60;79.10
5556;DHT22;2801;50.972;7.856;2023-07-13T13:49:26;23.60;78.10
5556;DHT22;2801;50.972;7.856;2023-07-13T13:51:54;23.50;76.90
5556;DHT22;2801;50.972;7.856;2023-07-13T13:54:24;23.50;75.60
5556;DHT22;2801;50.972;7.856;2023-07-13T13:56:53;23.30;75.30
5556;DHT22;2801;50.972;7.856;2023-07-13T13:59:20;23.20;75.70
5556;DHT22;2801;50.972;7.856;2023-07-13T14:01:47;23.20;76.40
5556;DHT22;2801;50.972;7.856;2023-07-13T14:04:21;23.20;76.70
5556;DHT22;2801;50.972;7.856;2023-07-13T14:06:48;23.30;77.20
5556;DHT22;2801;50.972;7.856;2023-07-13T14:09:18;23.40;76.30
5556;DHT22;2801;50.972;7.856;2023-07-13T14:11:47;23.50;76.10
5556;DHT22;2801;50.972;7.856;2023-07-13T14:14:23;23.70;77.60
5556;DHT22;2801;50.972;7.856;2023-07-13T14:16:52;23.70;76.30
5556;DHT22;2801;50.972;7.856;2023-07-13T14:19:23;23.70;75.30
5556;DHT22;2801;50.972;7.856;2023-07-13T14:21:50;23.70;75.10
5556;DHT22;2801;50.972;7.856;2023-07-13T14:24:20;23.70;74.70
5556;DHT22;2801;50.972;7.856;2023-07-13T14:26:48;23.70;73.50
5556;DHT22;2801;50.972;7.856;2023-07-13T14:29:17;23.80;74.40
5556;DHT22;2801;50.972;7.856;2023-07-13T14:31:50;24.00;74.40
5556;DHT22;2801;50.972;7.856;2023-07-13T14:34:17;24.20;75.20
5556;DHT22;2801;50.972;7.856;2023-07-13T14:36:46;24.40;75.70
5556;DHT22;2801;50.972;7.856;2023-07-13T14:39:19;24.40;75.50
5556;DHT22;2801;50.972;7.856;2023-07-13T14:41:53;24.50;74.60
5556;DHT22;2801;50.972;7.856;2023-07-13T14:44:24;24.50;73.30
5556;DHT22;2801;50.972;7.856;2023-07-13T14:46:57;24.60;72.90
5556;DHT22;2801;50.972;7.856;2023-07-13T14:49:28;24.80;73.50
5556;DHT22;2801;50.972;7.856;2023-07-13T14:52:03;25.00;71.80
5556;DHT22;2801;50.972;7.856;2023-07-13T14:54:37;25.00;70.10
5556;DHT22;2801;50.972;7.856;2023-07-13T14:57:12;24.90;69.40
5556;DHT22;2801;50.972;7.856;2023-07-13T14:59:40;24.70;70.10
5556;DHT22;2801;50.972;7.856;2023-07-13T15:02:31;24.80;70.90
5556;DHT22;2801;50.972;7.856;2023-07-13T15:05:01;24.80;71.10
5556;DHT22;2801;50.972;7.856;2023-07-13T15:07:30;24.90;70.00
5556;DHT22;2801;50.972;7.856;2023-07-13T15:09:57;25.00;70.70
5556;DHT22;2801;50.972;7.856;2023-07-13T15:12:24;25.10;70.80
5556;DHT22;2801;50.972;7.856;2023-07-13T15:14:51;25.20;69.70
5556;DHT22;2801;50.972;7.856;2023-07-13T15:17:39;25.20;69.90
5556;DHT22;2801;50.972;7.856;2023-07-13T15:22:59;25.40;68.40
5556;DHT22;2801;50.972;7.856;2023-07-13T15:25:28;25.50;68.80
5556;DHT22;2801;50.972;7.856;2023-07-13T15:27:57;25.50;67.70
5556;DHT22;2801;50.972;7.856;2023-07-13T15:30:30;25.50;68.40
5556;DHT22;2801;50.972;7.856;2023-07-13T15:33:27;25.60;66.50
5556;DHT22;2801;50.972;7.856;2023-07-13T15:35:56;25.50;66.50
5556;DHT22;2801;50.972;7.856;2023-07-13T15:38:29;25.50;66.30
5556;DHT22;2801;50.972;7.856;2023-07-13T15:40:57;25.40;65.90
5556;DHT22;2801;50.972;7.856;2023-07-13T15:43:25;25.30;66.00
5556;DHT22;2801;50.972;7.856;2023-07-13T15:45:53;25.30;66.30
5556;DHT22;2801;50.972;7.856;2023-07-13T15:48:22;25.30;66.80
5556;DHT22;2801;50.972;7.856;2023-07-13T15:50:52;25.30;67.60
5556;DHT22;2801;50.972;7.856;2023-07-13T15:53:28;25.40;67.90
5556;DHT22;2801;50.972;7.856;2023-07-13T15:55:57;25.40;66.50
5556;DHT22;2801;50.972;7.856;2023-07-13T15:58:25;25.30;66.40
5556;DHT22;2801;50.972;7.856;2023-07-13T16:00:53;25.20;67.20
5556;DHT22;2801;50.972;7.856;2023-07-13T16:03:21;25.10;66.30
5556;DHT22;2801;50.972;7.856;2023-07-13T16:05:49;24.70;66.60
5556;DHT22;2801;50.972;7.856;2023-07-13T16:08:27;24.40;66.70
5556;DHT22;2801;50.972;7.856;2023-07-13T16:10:55;24.10;67.20
5556;DHT22;2801;50.972;7.856;2023-07-13T16:13:23;23.80;67.80
5556;DHT22;2801;50.972;7.856;2023-07-13T16:15:53;23.60;68.40
5556;DHT22;2801;50.972;7.856;2023-07-13T16:18:23;23.50;69.20
5556;DHT22;2801;50.972;7.856;2023-07-13T16:20:50;23.60;69.90
5556;DHT22;2801;50.972;7.856;2023-07-13T16:23:20;23.80;70.90
5556;DHT22;2801;50.972;7.856;2023-07-13T16:25:48;23.90;71.60
5556;DHT22;2801;50.972;7.856;2023-07-13T16:28:15;24.00;71.00
5556;DHT22;2801;50.972;7.856;2023-07-13T16:30:42;24.10;70.50
5556;DHT22;2801;50.972;7.856;2023-07-13T16:33:09;24.00;70.00
5556;DHT22;2801;50.972;7.856;2023-07-13T16:35:39;24.00;70.20
5556;DHT22;2801;50.972;7.856;2023-07-13T16:38:18;23.90;70.40
5556;DHT22;2801;50.972;7.856;2023-07-13T16:40:47;23.80;71.10
5556;DHT22;2801;50.972;7.856;2023-07-13T16:43:16;23.80;70.90
5556;DHT22;2801;50.972;7.856;2023-07-13T16:45:49;23.80;71.70
5556;DHT22;2801;50.972;7.856;2023-07-13T16:48:21;23.60;70.50
5556;DHT22;2801;50.972;7.856;2023-07-13T16:50:53;23.50;69.90
5556;DHT22;2801;50.972;7.856;2023-07-13T16:53:28;23.40;70.00
5556;DHT22;2801;50.972;7.856;2023-07-13T16:55:56;23.30;70.00
5556;DHT22;2801;50.972;7.856;2023-07-13T16:58:34;23.20;70.90
5556;DHT22;2801;50.972;7.856;2023-07-13T17:01:01;23.00;71.30
5556;DHT22;2801;50.972;7.856;2023-07-13T17:03:30;22.90;71.70
5556;DHT22;2801;50.972;7.856;2023-07-13T17:06:02;22.70;71.80
5556;DHT22;2801;50.972;7.856;2023-07-13T17:08:44;22.50;72.00
5556;DHT22;2801;50.972;7.856;2023-07-13T17:11:11;22.40;71.90
5556;DHT22;2801;50.972;7.856;2023-07-13T17:13:38;22.20;72.20
5556;DHT22;2801;50.972;7.856;2023-07-13T17:16:05;22.10;72.70
5556;DHT22;2801;50.972;7.856;2023-07-13T17:18:36;21.90;73.00
5556;DHT22;2801;50.972;7.856;2023-07-13T17:21:07;21.70;74.10
5556;DHT22;2801;50.972;7.856;2023-07-13T17:23:40;21.50;75.30
5556;DHT22;2801;50.972;7.856;2023-07-13T17:26:07;21.20;76.60
5556;DHT22;2801;50.972;7.856;2023-07-13T17:28:37;21.00;77.50